createdAt,value
2018-06-01T00:00:18.194Z,11.93
2018-06-01T00:01:20.862Z,11.98
2018-06-01T00:02:23.364Z,10.98
2018-06-01T00:03:25.836Z,11.52
2018-06-01T00:04:28.332Z,12.05
2018-06-01T00:05:31.752Z,12.13
2018-06-01T00:06:34.244Z,12.30
2018-06-01T00:07:36.724Z,11.98
2018-06-01T00:08:39.972Z,11.65
2018-06-01T00:09:42.475Z,11.40
2018-06-01T00:10:46.522Z,12.05
2018-06-01T00:11:49.036Z,11.32
2018-06-01T00:12:51.516Z,11.20
2018-06-01T00:13:54.759Z,11.02
2018-06-01T00:14:57.252Z,11.77
2018-06-01T00:16:01.506Z,11.60
2018-06-01T00:17:04.020Z,11.48
2018-06-01T00:18:06.491Z,13.07
2018-06-01T00:19:10.479Z,13.25
2018-06-01T00:20:13.206Z,13.90
2018-06-01T00:21:16.796Z,14.05
2018-06-01T00:22:19.299Z,13.80
2018-06-01T00:23:21.776Z,13.80
2018-06-01T00:24:24.251Z,13.85
2018-06-01T00:25:27.110Z,13.98
2018-06-01T00:26:30.372Z,15.10
2018-06-01T00:27:32.848Z,14.82
2018-06-01T00:28:35.324Z,14.77
2018-06-01T00:29:39.869Z,14.70
2018-06-01T00:30:44.231Z,14.85
2018-06-01T00:31:48.232Z,13.70
2018-06-01T00:32:50.716Z,15.15
2018-06-01T00:33:53.200Z,14.52
2018-06-01T00:34:56.440Z,14.93
2018-06-01T00:35:59.231Z,14.43
2018-06-01T00:37:02.487Z,14.50
2018-06-01T00:38:04.964Z,15.13
2018-06-01T00:39:07.436Z,15.15
2018-06-01T00:40:10.267Z,15.02
2018-06-01T00:41:13.141Z,14.15
2018-06-01T00:42:16.959Z,14.85
2018-06-01T00:43:19.436Z,15.25
2018-06-01T00:44:21.912Z,15.55
2018-06-01T00:45:25.250Z,16.05
2018-06-01T00:46:28.020Z,14.50
2018-06-01T00:47:30.530Z,15.30
2018-06-01T00:48:33.011Z,14.93
2018-06-01T00:49:36.255Z,15.57
2018-06-01T00:50:39.006Z,16.12
2018-06-01T00:51:41.542Z,15.43
2018-06-01T00:52:44.780Z,14.25
2018-06-01T00:53:47.252Z,16.08
2018-06-01T00:55:01.678Z,15.27
2018-06-01T00:56:04.447Z,16.10
2018-06-01T00:57:06.964Z,15.77
2018-06-01T00:58:10.208Z,15.60
2018-06-01T00:59:12.688Z,15.50
2018-06-01T01:00:15.457Z,16.35
2018-06-01T01:01:19.211Z,16.62
2018-06-01T01:02:21.733Z,15.10
2018-06-01T01:03:24.208Z,17.12
2018-06-01T01:04:27.444Z,15.80
2018-06-01T01:05:30.297Z,15.80
2018-06-01T01:06:32.808Z,16.35
2018-06-01T01:07:35.307Z,16.67
2018-06-01T01:08:38.552Z,16.98
2018-06-01T01:09:41.028Z,16.83
2018-06-01T01:10:43.746Z,17.08
2018-06-01T01:11:46.251Z,16.12
2018-06-01T01:12:49.524Z,16.98
2018-06-01T01:13:51.999Z,17.65
2018-06-01T01:14:55.242Z,16.60
2018-06-01T01:15:58.010Z,16.92
2018-06-01T01:17:00.528Z,17.48
2018-06-01T01:18:03.028Z,18.20
2018-06-01T01:19:05.504Z,18.52
2018-06-01T01:20:08.582Z,17.17
2018-06-01T01:21:11.457Z,18.30
2018-06-01T01:22:13.967Z,18.92
2018-06-01T01:23:16.464Z,19.05
2018-06-01T01:24:19.703Z,19.83
2018-06-01T01:25:22.542Z,19.75
2018-06-01T01:26:25.726Z,18.33
2018-06-01T01:27:28.225Z,18.40
2018-06-01T01:28:30.723Z,18.95
2018-06-01T01:29:33.964Z,18.15
2018-06-01T01:30:36.705Z,18.52
2018-06-01T01:31:39.208Z,19.27
2018-06-01T01:32:41.688Z,17.95
2018-06-01T01:33:44.187Z,18.45
2018-06-01T01:34:46.663Z,20.12
2018-06-01T01:35:49.348Z,19.17
2018-06-01T01:36:51.842Z,18.40
2018-06-01T01:37:54.324Z,18.08
2018-06-01T01:38:56.820Z,18.08
2018-06-01T01:39:59.300Z,17.25
2018-06-01T01:41:02.064Z,19.12
2018-06-01T01:42:04.575Z,18.55
2018-06-01T01:43:07.048Z,20.65
2018-06-01T01:44:09.544Z,18.75
2018-06-01T01:45:12.228Z,20.40
2018-06-01T01:46:14.999Z,19.77
2018-06-01T01:47:17.500Z,19.17
2018-06-01T01:48:19.976Z,19.58
2018-06-01T01:49:22.471Z,20.00
2018-06-01T01:50:25.925Z,20.00
2018-06-01T01:51:28.517Z,20.58
2018-06-01T01:52:31.756Z,21.33
2018-06-01T01:53:34.232Z,21.23
2018-06-01T01:54:36.727Z,21.30
2018-06-01T01:55:40.249Z,21.70
2018-06-01T01:56:42.764Z,20.50
2018-06-01T01:57:45.264Z,21.98
2018-06-01T01:58:48.501Z,22.70
2018-06-01T01:59:51.003Z,21.85
2018-06-01T02:00:54.619Z,23.60
2018-06-01T02:01:57.124Z,22.52
2018-06-01T02:02:59.604Z,23.00
2018-06-01T02:04:02.077Z,21.12
2018-06-01T02:05:05.705Z,21.80
2018-06-01T02:06:08.477Z,21.83
2018-06-01T02:07:10.999Z,21.20
2018-06-01T02:08:13.469Z,22.08
2018-06-01T02:09:15.944Z,21.35
2018-06-01T02:10:19.479Z,21.25
2018-06-01T02:11:22.233Z,21.23
2018-06-01T02:12:24.741Z,21.65
2018-06-01T02:13:27.215Z,22.10
2018-06-01T02:14:29.688Z,20.92
2018-06-01T02:15:32.395Z,21.40
2018-06-01T02:16:34.901Z,20.20
2018-06-01T02:17:37.384Z,22.42
2018-06-01T02:18:40.623Z,19.92
2018-06-01T02:19:43.101Z,21.23
2018-06-01T02:20:45.848Z,20.52
2018-06-01T02:21:48.347Z,20.15
2018-06-01T02:22:50.824Z,20.88
2018-06-01T02:23:53.299Z,21.15
2018-06-01T02:24:56.539Z,21.58
2018-06-01T02:25:59.290Z,20.37
2018-06-01T02:27:01.788Z,20.85
2018-06-01T02:28:04.268Z,20.40
2018-06-01T02:29:07.512Z,21.87
2018-06-01T02:30:10.171Z,21.98
2018-06-01T02:31:13.044Z,21.00
2018-06-01T02:32:15.578Z,19.90
2018-06-01T02:33:18.820Z,21.05
2018-06-01T02:34:21.300Z,21.75
2018-06-01T02:35:24.440Z,22.05
2018-06-01T02:36:27.185Z,21.23
2018-06-01T02:37:29.680Z,21.60
2018-06-01T02:38:32.160Z,20.52
2018-06-01T02:39:34.644Z,22.05
2018-06-01T02:40:37.269Z,21.52
2018-06-01T02:41:39.797Z,21.10
2018-06-01T02:42:43.040Z,22.23
2018-06-01T02:43:45.512Z,20.20
2018-06-01T02:44:47.988Z,20.25
2018-06-01T02:45:50.652Z,21.10
2018-06-01T02:46:53.180Z,21.83
2018-06-01T02:47:55.652Z,22.58
2018-06-01T02:48:58.129Z,22.83
2018-06-01T02:50:00.603Z,22.60
2018-06-01T02:51:03.448Z,22.98
2018-06-01T02:52:05.976Z,21.42
2018-06-01T02:53:09.215Z,23.20
2018-06-01T02:54:11.688Z,21.40
2018-06-01T02:55:14.537Z,21.02
2018-06-01T02:56:17.612Z,21.42
2018-06-01T02:57:20.145Z,22.25
2018-06-01T02:58:23.387Z,21.75
2018-06-01T02:59:25.860Z,22.77
2018-06-01T03:00:29.516Z,22.05
2018-06-01T03:01:32.008Z,22.23
2018-06-01T03:02:34.508Z,20.58
2018-06-01T03:03:37.789Z,21.12
2018-06-01T03:04:41.036Z,22.23
2018-06-01T03:05:44.296Z,20.83
2018-06-01T03:06:58.573Z,22.23
2018-06-01T03:08:01.071Z,21.30
2018-06-01T03:09:04.312Z,21.40
2018-06-01T03:10:06.784Z,22.23
2018-06-01T03:11:09.535Z,20.42
2018-06-01T03:12:12.027Z,22.70
2018-06-01T03:13:14.526Z,21.75
2018-06-01T03:14:17.780Z,19.90
2018-06-01T03:15:20.552Z,20.45
2018-06-01T03:16:23.829Z,20.45
2018-06-01T03:17:26.324Z,19.48
2018-06-01T03:18:29.592Z,20.67
2018-06-01T03:19:32.836Z,19.42
2018-06-01T03:20:35.694Z,21.12
2018-06-01T03:21:38.185Z,19.75
2018-06-01T03:22:40.656Z,19.30
2018-06-01T03:23:43.153Z,20.83
2018-06-01T03:24:46.391Z,21.62
2018-06-01T03:25:49.240Z,21.37
2018-06-01T03:26:51.752Z,22.83
2018-06-01T03:27:54.227Z,20.37
2018-06-01T03:28:56.723Z,19.85
2018-06-01T03:29:59.197Z,21.40
2018-06-01T03:31:01.970Z,21.75
2018-06-01T03:32:04.488Z,20.85
2018-06-01T03:33:07.732Z,20.80
2018-06-01T03:34:10.228Z,19.83
2018-06-01T03:35:13.061Z,22.00
2018-06-01T03:36:16.547Z,20.65
2018-06-01T03:37:19.056Z,20.20
2018-06-01T03:38:22.299Z,20.02
2018-06-01T03:39:24.788Z,20.52
2018-06-01T03:40:27.629Z,19.83
2018-06-01T03:41:30.140Z,20.25
2018-06-01T03:42:32.616Z,20.20
2018-06-01T03:43:35.856Z,20.88
2018-06-01T03:44:38.355Z,20.37
2018-06-01T03:45:41.080Z,16.23
2018-06-01T03:46:43.890Z,15.75
2018-06-01T03:47:46.380Z,12.05
2018-06-01T03:48:49.622Z,11.93
2018-06-01T03:49:52.112Z,12.32
2018-06-01T03:50:56.572Z,11.90
2018-06-01T03:51:59.081Z,11.75
2018-06-01T03:53:03.075Z,11.68
2018-06-01T03:54:05.557Z,11.52
2018-06-01T03:55:09.913Z,12.02
2018-06-01T03:56:13.510Z,10.50
2018-06-01T03:57:16.024Z,10.02
2018-06-01T03:58:19.264Z,9.90
2018-06-01T03:59:21.741Z,9.85
2018-06-01T04:00:24.484Z,8.13
2018-06-01T04:01:27.266Z,9.00
2018-06-01T04:02:29.759Z,9.38
2018-06-01T04:03:32.228Z,9.27
2018-06-01T04:04:35.469Z,9.43
2018-06-01T04:05:39.058Z,9.45
2018-06-01T04:06:41.564Z,11.23
2018-06-01T04:07:44.040Z,12.55
2018-06-01T04:08:46.516Z,13.55
2018-06-01T04:09:48.996Z,15.85
2018-06-01T04:10:52.505Z,18.10
2018-06-01T04:11:55.015Z,20.42
2018-06-01T04:12:57.492Z,20.23
2018-06-01T04:13:59.967Z,19.77
2018-06-01T04:15:03.316Z,21.62
2018-06-01T04:16:06.055Z,22.50
2018-06-01T04:17:08.557Z,23.00
2018-06-01T04:18:11.032Z,25.02
2018-06-01T04:19:13.511Z,25.25
2018-06-01T04:20:16.263Z,26.70
2018-06-01T04:21:19.093Z,23.85
2018-06-01T04:22:21.606Z,24.60
2018-06-01T04:23:24.082Z,23.85
2018-06-01T04:24:26.568Z,22.77
2018-06-01T04:25:30.124Z,22.80
2018-06-01T04:26:32.641Z,21.15
2018-06-01T04:27:35.128Z,20.58
2018-06-01T04:28:37.603Z,19.90
2018-06-01T04:29:40.072Z,19.35
2018-06-01T04:30:43.626Z,19.65
2018-06-01T04:31:46.143Z,20.75
2018-06-01T04:32:48.616Z,20.95
2018-06-01T04:33:51.104Z,20.67
2018-06-01T04:34:54.340Z,22.02
2018-06-01T04:35:57.176Z,18.87
2018-06-01T04:36:59.716Z,19.23
2018-06-01T04:38:02.959Z,21.35
2018-06-01T04:39:05.435Z,20.50
2018-06-01T04:40:08.207Z,20.40
2018-06-01T04:41:11.648Z,16.40
2018-06-01T04:42:14.172Z,17.62
2018-06-01T04:43:18.152Z,17.10
2018-06-01T04:44:20.624Z,18.15
2018-06-01T04:45:24.166Z,17.65
2018-06-01T04:46:26.873Z,14.63
2018-06-01T04:47:30.140Z,13.45
2018-06-01T04:48:32.618Z,12.82
2018-06-01T04:49:35.090Z,13.32
2018-06-01T04:50:37.870Z,15.45
2018-06-01T04:51:40.414Z,14.48
2018-06-01T04:52:42.911Z,14.57
2018-06-01T04:53:46.892Z,14.27
2018-06-01T04:54:49.368Z,15.00
2018-06-01T04:55:52.007Z,13.25
2018-06-01T04:56:54.500Z,12.75
2018-06-01T04:57:56.996Z,11.55
2018-06-01T04:59:00.235Z,11.30
2018-06-01T05:00:02.730Z,11.48
2018-06-01T05:01:06.250Z,9.88
2018-06-01T05:02:08.736Z,9.32
2018-06-01T05:03:11.232Z,9.95
2018-06-01T05:04:13.703Z,8.80
2018-06-01T05:05:17.967Z,8.88
2018-06-01T05:06:20.629Z,7.85
2018-06-01T05:07:23.124Z,8.50
2018-06-01T05:08:25.619Z,7.70
2018-06-01T05:09:28.852Z,7.55
2018-06-01T05:10:31.508Z,8.30
2018-06-01T05:11:34.004Z,7.80
2018-06-01T05:12:36.521Z,7.78
2018-06-01T05:13:39.007Z,7.82
2018-06-01T05:14:41.472Z,7.87
2018-06-01T05:15:44.113Z,7.87
2018-06-01T05:16:46.595Z,7.62
2018-06-01T05:17:49.065Z,8.20
2018-06-01T05:18:51.556Z,8.25
2018-06-01T05:19:54.027Z,8.02
2018-06-01T05:20:56.651Z,8.80
2018-06-01T05:21:59.144Z,8.10
2018-06-01T05:23:01.741Z,8.70
2018-06-01T05:24:05.739Z,9.50
2018-06-01T05:25:09.939Z,8.40
2018-06-01T05:26:13.480Z,8.35
2018-06-01T05:27:15.984Z,8.50
2018-06-01T05:28:18.485Z,9.18
2018-06-01T05:29:21.733Z,9.15
2018-06-01T05:30:24.565Z,9.65
2018-06-01T05:31:27.356Z,10.05
2018-06-01T05:32:29.827Z,9.73
2018-06-01T05:33:32.291Z,9.23
2018-06-01T05:34:34.784Z,10.32
2018-06-01T05:35:37.500Z,11.38
2018-06-01T05:36:39.993Z,10.55
2018-06-01T05:37:42.464Z,12.37
2018-06-01T05:38:44.936Z,11.68
2018-06-01T05:39:47.433Z,11.40
2018-06-01T05:40:51.869Z,14.05
2018-06-01T05:41:54.355Z,13.05
2018-06-01T05:42:56.832Z,13.30
2018-06-01T05:43:59.303Z,15.80
2018-06-01T05:45:01.955Z,14.60
2018-06-01T05:46:04.703Z,13.73
2018-06-01T05:47:07.207Z,14.73
2018-06-01T05:48:09.679Z,16.17
2018-06-01T05:49:12.151Z,18.70
2018-06-01T05:50:15.890Z,16.20
2018-06-01T05:51:18.596Z,19.33
2018-06-01T05:52:21.080Z,18.30
2018-06-01T05:53:23.580Z,20.50
2018-06-01T05:54:26.106Z,20.40
2018-06-01T05:55:28.769Z,22.15
2018-06-01T05:56:31.260Z,20.40
2018-06-01T05:57:34.496Z,19.87
2018-06-01T05:58:36.968Z,20.98
2018-06-01T05:59:39.884Z,20.48
2018-06-01T06:00:43.501Z,22.08
2018-06-01T06:01:46.005Z,23.55
2018-06-01T06:02:48.475Z,23.95
2018-06-01T06:03:50.951Z,25.25
2018-06-01T06:04:53.427Z,26.37
2018-06-01T06:05:56.893Z,25.37
2018-06-01T06:07:00.155Z,27.83
2018-06-01T06:08:02.624Z,27.73
2018-06-01T06:09:05.868Z,29.05
2018-06-01T06:10:08.650Z,28.90
2018-06-01T06:11:12.341Z,27.67
2018-06-01T06:12:14.852Z,29.90
2018-06-01T06:13:17.343Z,31.80
2018-06-01T06:14:21.307Z,30.65
2018-06-01T06:15:24.042Z,32.78
2018-06-01T06:16:26.856Z,32.03
2018-06-01T06:17:30.119Z,32.00
2018-06-01T06:18:32.596Z,32.97
2018-06-01T06:19:35.064Z,31.75
2018-06-01T06:20:37.836Z,32.95
2018-06-01T06:21:41.853Z,32.95
2018-06-01T06:22:44.325Z,30.67
2018-06-01T06:23:47.563Z,32.47
2018-06-01T06:24:50.044Z,34.97
2018-06-01T06:25:52.779Z,34.00
2018-06-01T06:26:55.328Z,35.33
2018-06-01T06:27:58.563Z,34.42
2018-06-01T06:29:01.040Z,35.25
2018-06-01T06:30:03.512Z,35.15
2018-06-01T06:31:06.637Z,34.42
2018-06-01T06:32:09.168Z,33.80
2018-06-01T06:33:12.408Z,33.90
2018-06-01T06:34:14.887Z,35.28
2018-06-01T06:35:17.660Z,35.22
2018-06-01T06:36:21.816Z,35.85
2018-06-01T06:37:24.303Z,35.40
2018-06-01T06:38:26.776Z,35.28
2018-06-01T06:39:29.248Z,35.30
2018-06-01T06:40:32.603Z,33.40
2018-06-01T06:41:35.103Z,33.90
2018-06-01T06:42:37.606Z,34.10
2018-06-01T06:43:40.840Z,34.70
2018-06-01T06:44:43.319Z,34.28
2018-06-01T06:45:46.055Z,33.83
2018-06-01T06:46:48.539Z,33.33
2018-06-01T06:47:51.032Z,34.00
2018-06-01T06:48:53.504Z,31.60
2018-06-01T06:49:56.744Z,32.85
2018-06-01T06:50:59.498Z,33.40
2018-06-01T06:52:02.023Z,32.50
2018-06-01T06:53:06.020Z,31.62
2018-06-01T06:54:09.303Z,32.28
2018-06-01T06:55:12.879Z,32.22
2018-06-01T06:56:16.426Z,32.03
2018-06-01T06:57:18.938Z,31.40
2018-06-01T06:58:21.428Z,32.53
2018-06-01T06:59:24.675Z,31.20
2018-06-01T07:00:27.411Z,31.77
2018-06-01T07:01:29.919Z,30.77
2018-06-01T07:02:32.500Z,31.98
2018-06-01T07:03:34.997Z,32.10
2018-06-01T07:04:37.471Z,30.67
2018-06-01T07:05:40.799Z,30.62
2018-06-01T07:06:44.057Z,31.33
2018-06-01T07:07:46.528Z,31.42
2018-06-01T07:08:49.261Z,30.67
2018-06-01T07:09:52.501Z,31.55
2018-06-01T07:10:55.155Z,30.45
2018-06-01T07:11:58.456Z,29.67
2018-06-01T07:13:00.924Z,28.73
2018-06-01T07:14:03.415Z,31.20
2018-06-01T07:15:06.928Z,28.65
2018-06-01T07:16:09.697Z,29.80
2018-06-01T07:17:12.196Z,28.92
2018-06-01T07:18:14.671Z,29.80
2018-06-01T07:19:17.156Z,28.92
2018-06-01T07:20:21.523Z,28.02
2018-06-01T07:21:25.194Z,27.75
2018-06-01T07:22:27.718Z,26.60
2018-06-01T07:23:30.179Z,27.13
2018-06-01T07:24:32.672Z,27.65
2018-06-01T07:25:36.226Z,27.08
2018-06-01T07:26:38.716Z,27.48
2018-06-01T07:27:41.973Z,27.27
2018-06-01T07:28:44.440Z,28.65
2018-06-01T07:29:46.931Z,26.08
2018-06-01T07:30:50.342Z,26.58
2018-06-01T07:31:52.839Z,26.35
2018-06-01T07:32:55.319Z,26.50
2018-06-01T07:33:57.797Z,26.58
2018-06-01T07:35:00.297Z,26.23
2018-06-01T07:36:03.072Z,27.10
2018-06-01T07:37:05.588Z,25.60
2018-06-01T07:38:08.832Z,26.52
2018-06-01T07:39:11.311Z,26.55
2018-06-01T07:40:14.001Z,27.37
2018-06-01T07:41:17.645Z,25.85
2018-06-01T07:42:20.144Z,27.55
2018-06-01T07:43:22.620Z,26.17
2018-06-01T07:44:25.150Z,26.98
2018-06-01T07:45:29.652Z,26.50
2018-06-01T07:46:32.160Z,25.88
2018-06-01T07:47:34.629Z,26.52
2018-06-01T07:48:37.128Z,26.12
2018-06-01T07:49:40.368Z,27.33
2018-06-01T07:50:43.131Z,26.45
2018-06-01T07:51:45.623Z,26.77
2018-06-01T07:52:48.099Z,26.55
2018-06-01T07:53:51.340Z,27.50
2018-06-01T07:54:53.819Z,27.20
2018-06-01T07:55:56.956Z,27.08
2018-06-01T07:56:59.472Z,25.95
2018-06-01T07:58:01.943Z,25.92
2018-06-01T07:59:05.187Z,26.17
2018-06-01T08:00:07.885Z,26.95
2018-06-01T08:01:10.656Z,27.10
2018-06-01T08:02:13.916Z,26.00
2018-06-01T08:03:16.396Z,27.45
2018-06-01T08:04:18.872Z,26.00
2018-06-01T08:05:23.065Z,26.23
2018-06-01T08:06:26.616Z,26.00
2018-06-01T08:07:29.124Z,25.45
2018-06-01T08:08:31.596Z,26.05
2018-06-01T08:09:34.072Z,24.67
2018-06-01T08:10:36.617Z,25.40
2018-06-01T08:11:39.120Z,24.75
2018-06-01T08:12:42.360Z,25.42
2018-06-01T08:13:44.844Z,24.48
2018-06-01T08:14:48.148Z,26.27
2018-06-01T08:15:50.881Z,26.92
2018-06-01T08:16:54.888Z,26.33
2018-06-01T08:17:58.136Z,25.80
2018-06-01T08:19:00.608Z,26.52
2018-06-01T08:20:03.170Z,25.73
2018-06-01T08:21:06.065Z,24.77
2018-06-01T08:22:09.340Z,25.75
2018-06-01T08:23:11.812Z,25.50
2018-06-01T08:24:14.284Z,24.83
2018-06-01T08:25:17.039Z,26.15
2018-06-01T08:26:19.804Z,25.30
2018-06-01T08:27:22.336Z,26.25
2018-06-01T08:28:24.835Z,26.17
2018-06-01T08:29:27.313Z,25.62
2018-06-01T08:30:30.153Z,25.17
2018-06-01T08:31:32.837Z,24.58
2018-06-01T08:32:35.356Z,24.58
2018-06-01T08:33:38.606Z,24.45
2018-06-01T08:34:41.080Z,24.87
2018-06-01T08:35:43.906Z,24.15
2018-06-01T08:36:46.420Z,24.15
2018-06-01T08:37:48.915Z,23.92
2018-06-01T08:38:52.159Z,23.80
2018-06-01T08:39:54.636Z,23.23
2018-06-01T08:40:57.457Z,23.27
2018-06-01T08:41:59.966Z,25.15
2018-06-01T08:43:02.460Z,22.75
2018-06-01T08:44:05.699Z,24.08
2018-06-01T08:45:08.690Z,23.40
2018-06-01T08:46:13.055Z,22.45
2018-06-01T08:47:15.564Z,22.48
2018-06-01T08:48:18.065Z,30.08
2018-06-01T08:49:21.308Z,25.05
2018-06-01T08:50:24.079Z,23.92
2018-06-01T08:51:26.787Z,24.15
2018-06-01T08:52:30.044Z,22.87
2018-06-01T08:53:33.319Z,25.55
2018-06-01T08:54:35.796Z,27.60
2018-06-01T08:55:39.212Z,23.58
2018-06-01T08:56:41.707Z,21.35
2018-06-01T08:57:44.180Z,23.70
2018-06-01T08:58:46.692Z,22.40
2018-06-01T08:59:49.927Z,23.40
2018-06-01T09:00:53.332Z,23.83
2018-06-01T09:01:56.592Z,23.33
2018-06-01T09:02:59.065Z,23.45
2018-06-01T09:04:01.559Z,24.17
2018-06-01T09:05:04.804Z,24.10
2018-06-01T09:06:07.554Z,23.50
2018-06-01T09:07:10.060Z,22.80
2018-06-01T09:08:12.532Z,24.48
2018-06-01T09:09:16.542Z,24.10
2018-06-01T09:10:20.844Z,23.50
2018-06-01T09:11:23.663Z,24.52
2018-06-01T09:12:26.176Z,21.25
2018-06-01T09:13:28.650Z,23.50
2018-06-01T09:14:31.924Z,22.75
2018-06-01T09:15:35.194Z,22.73
2018-06-01T09:16:37.695Z,22.95
2018-06-01T09:17:40.944Z,23.50
2018-06-01T09:18:43.420Z,22.75
2018-06-01T09:19:45.912Z,22.60
2018-06-01T09:20:49.427Z,22.15
2018-06-01T09:21:51.943Z,22.70
2018-06-01T09:22:54.416Z,22.20
2018-06-01T09:23:56.896Z,23.83
2018-06-01T09:25:00.152Z,22.02
2018-06-01T09:26:02.875Z,20.70
2018-06-01T09:27:05.380Z,20.52
2018-06-01T09:28:07.864Z,23.25
2018-06-01T09:29:10.350Z,23.55
2018-06-01T09:30:13.898Z,22.75
2018-06-01T09:31:17.344Z,22.67
2018-06-01T09:32:19.848Z,22.92
2018-06-01T09:33:22.319Z,23.12
2018-06-01T09:34:24.850Z,22.75
2018-06-01T09:35:28.371Z,21.85
2018-06-01T09:36:31.624Z,20.27
2018-06-01T09:37:34.101Z,18.60
2018-06-01T09:38:36.571Z,19.60
2018-06-01T09:39:39.887Z,19.42
2018-06-01T09:40:43.515Z,20.73
2018-06-01T09:41:46.018Z,20.35
2018-06-01T09:42:48.491Z,15.70
2018-06-01T09:43:50.968Z,16.33
2018-06-01T09:44:54.944Z,15.02
2018-06-01T09:45:57.679Z,14.40
2018-06-01T09:47:00.180Z,16.23
2018-06-01T09:48:02.652Z,18.27
2018-06-01T09:49:05.127Z,18.55
2018-06-01T09:50:09.521Z,19.17
2018-06-01T09:51:12.356Z,19.95
2018-06-01T09:52:14.866Z,19.77
2018-06-01T09:53:17.341Z,20.27
2018-06-01T09:54:20.592Z,20.10
2018-06-01T09:55:23.166Z,19.65
2018-06-01T09:56:26.113Z,20.12
2018-06-01T09:57:28.596Z,20.52
2018-06-01T09:58:31.068Z,20.10
2018-06-01T09:59:33.544Z,22.25
2018-06-01T10:00:41.964Z,21.98
2018-06-01T10:01:44.496Z,20.95
2018-06-01T10:02:47.034Z,22.25
2018-06-01T10:03:49.455Z,20.08
2018-06-01T10:04:51.928Z,20.85
2018-06-01T10:05:55.460Z,20.98
2018-06-01T10:06:57.996Z,21.10
2018-06-01T10:08:01.236Z,22.25
2018-06-01T10:09:03.715Z,22.70
2018-06-01T10:10:12.992Z,22.20
2018-06-01T10:11:16.364Z,22.62
2018-06-01T10:12:18.880Z,21.92
2018-06-01T10:13:21.352Z,22.20
2018-06-01T10:14:23.827Z,23.27
2018-06-01T10:15:27.327Z,20.80
2018-06-01T10:16:30.951Z,21.02
2018-06-01T10:17:33.496Z,20.62
2018-06-01T10:18:36.735Z,20.92
2018-06-01T10:19:39.669Z,21.23
2018-06-01T10:20:42.344Z,21.10
2018-06-01T10:21:44.848Z,21.98
2018-06-01T10:22:47.343Z,22.35
2018-06-01T10:23:50.580Z,22.10
2018-06-01T10:24:53.048Z,21.25
2018-06-01T10:25:55.893Z,21.42
2018-06-01T10:26:58.399Z,21.50
2018-06-01T10:28:00.915Z,22.87
2018-06-01T10:29:03.390Z,22.05
2018-06-01T10:30:05.860Z,19.37
2018-06-01T10:31:08.521Z,19.75
2018-06-01T10:32:11.020Z,20.23
2018-06-01T10:33:13.818Z,19.42
2018-06-01T10:34:17.062Z,18.55
2018-06-01T10:35:19.915Z,17.08
2018-06-01T10:36:22.724Z,15.95
2018-06-01T10:37:25.211Z,12.35
2018-06-01T10:38:29.523Z,13.75
2018-06-01T10:39:32.004Z,11.93
2018-06-01T10:40:35.617Z,12.37
2018-06-01T10:41:38.128Z,11.88
2018-06-01T10:42:40.600Z,11.90
2018-06-01T10:43:44.599Z,12.35
2018-06-01T10:44:47.076Z,11.30
2018-06-01T10:45:49.726Z,11.02
2018-06-01T10:46:52.977Z,9.68
2018-06-01T10:47:55.515Z,10.00
2018-06-01T10:48:58.007Z,11.90
2018-06-01T10:50:00.480Z,11.23
2018-06-01T10:51:03.259Z,11.48
2018-06-01T10:52:05.764Z,11.80
2018-06-01T10:53:09.004Z,11.30
2018-06-01T10:54:11.803Z,11.27
2018-06-01T10:55:14.561Z,12.82
2018-06-01T10:56:18.052Z,14.48
2018-06-01T10:57:21.304Z,7.47
2018-06-01T10:58:23.768Z,5.05
2018-06-01T10:59:26.248Z,8.20
2018-06-01T11:00:28.989Z,8.48
2018-06-01T11:01:31.540Z,6.72
2018-06-01T11:02:33.955Z,4.93
2018-06-01T11:03:36.424Z,4.80
2018-06-01T11:04:38.920Z,5.82
2018-06-01T11:05:42.537Z,7.05
2018-06-01T11:06:45.039Z,3.72
2018-06-01T11:07:47.500Z,5.03
2018-06-01T11:08:49.968Z,4.40
2018-06-01T11:09:52.471Z,4.65
2018-06-01T11:10:55.905Z,4.28
2018-06-01T11:11:58.395Z,4.87
2018-06-01T11:13:00.872Z,6.53
2018-06-01T11:14:04.104Z,3.47
2018-06-01T11:15:06.592Z,4.57
2018-06-01T11:16:09.441Z,4.20
2018-06-01T11:17:11.939Z,3.70
2018-06-01T11:18:14.404Z,4.10
2018-06-01T11:19:16.867Z,3.35
2018-06-01T11:20:19.579Z,2.92
2018-06-01T11:21:22.411Z,2.90
2018-06-01T11:22:25.663Z,2.53
2018-06-01T11:23:28.132Z,3.10
2018-06-01T11:24:30.600Z,2.85
2018-06-01T11:25:33.454Z,3.37
2018-06-01T11:26:36.748Z,2.90
2018-06-01T11:27:39.216Z,3.00
2018-06-01T11:28:41.716Z,2.95
2018-06-01T11:29:44.188Z,2.87
2018-06-01T11:30:47.212Z,3.80
2018-06-01T11:31:49.775Z,3.08
2018-06-01T11:32:52.237Z,3.58
2018-06-01T11:33:54.709Z,4.10
2018-06-01T11:34:57.188Z,4.18
2018-06-01T11:35:59.939Z,3.60
2018-06-01T11:37:02.428Z,2.65
2018-06-01T11:38:04.888Z,2.97
2018-06-01T11:39:07.352Z,2.85
2018-06-01T11:40:10.110Z,3.10
2018-06-01T11:41:12.981Z,2.95
2018-06-01T11:42:15.464Z,2.72
2018-06-01T11:43:17.932Z,2.78
2018-06-01T11:44:20.388Z,2.80
2018-06-01T11:45:23.038Z,2.92
2018-06-01T11:46:25.810Z,3.20
2018-06-01T11:47:28.300Z,3.55
2018-06-01T11:48:30.779Z,3.90
2018-06-01T11:49:33.249Z,4.50
2018-06-01T11:50:36.077Z,4.37
2018-06-01T11:51:38.595Z,4.30
2018-06-01T11:52:41.064Z,3.80
2018-06-01T11:53:43.523Z,2.70
2018-06-01T11:54:45.987Z,2.80
2018-06-01T11:55:48.704Z,3.35
2018-06-01T11:56:51.209Z,3.15
2018-06-01T11:57:53.672Z,2.65
2018-06-01T11:58:56.139Z,2.85
2018-06-01T11:59:58.743Z,3.17
2018-06-01T12:01:02.200Z,3.42
2018-06-01T12:02:05.512Z,3.30
2018-06-01T12:03:08.820Z,2.97
2018-06-01T12:04:11.224Z,3.10
2018-06-01T12:05:13.989Z,3.30
2018-06-01T12:06:16.758Z,2.92
2018-06-01T12:07:19.248Z,3.37
2018-06-01T12:08:22.477Z,3.30
2018-06-01T12:09:24.940Z,3.15
2018-06-01T12:10:28.016Z,3.37
2018-06-01T12:11:31.326Z,3.67
2018-06-01T12:12:33.814Z,3.10
2018-06-01T12:13:36.284Z,3.70
2018-06-01T12:14:38.752Z,3.15
2018-06-01T12:15:42.282Z,3.08
2018-06-01T12:16:44.772Z,3.08
2018-06-01T12:17:47.323Z,3.37
2018-06-01T12:18:50.507Z,3.15
2018-06-01T12:19:52.974Z,3.00
2018-06-01T12:20:56.241Z,3.05
2018-06-01T12:21:58.740Z,3.20
2018-06-01T12:23:01.224Z,2.67
2018-06-01T12:24:04.519Z,2.60
2018-06-01T12:25:07.910Z,2.53
2018-06-01T12:26:10.612Z,2.25
2018-06-01T12:27:13.108Z,2.25
2018-06-01T12:28:15.611Z,2.00
2018-06-01T12:29:18.126Z,2.37
2018-06-01T12:30:21.530Z,2.45
2018-06-01T12:31:24.263Z,2.62
2018-06-01T12:32:26.748Z,2.70
2018-06-01T12:33:29.248Z,2.60
2018-06-01T12:34:33.216Z,2.92
2018-06-01T12:35:35.861Z,2.37
2018-06-01T12:36:38.348Z,2.47
2018-06-01T12:37:40.811Z,2.50
2018-06-01T12:38:43.292Z,2.50
2018-06-01T12:39:45.755Z,2.60
2018-06-01T12:40:48.528Z,2.50
2018-06-01T12:41:51.004Z,3.25
2018-06-01T12:42:53.469Z,2.28
2018-06-01T12:43:55.970Z,3.62
2018-06-01T12:44:59.200Z,2.60
2018-06-01T12:46:01.984Z,2.60
2018-06-01T12:47:04.471Z,2.28
2018-06-01T12:48:07.700Z,2.70
2018-06-01T12:49:10.508Z,2.30
2018-06-01T12:50:13.273Z,2.50
2018-06-01T12:51:17.638Z,2.55
2018-06-01T12:52:20.112Z,2.53
2018-06-01T12:53:22.576Z,2.58
2018-06-01T12:54:25.063Z,2.55
2018-06-01T12:55:27.803Z,2.25
2018-06-01T12:56:30.471Z,2.53
2018-06-01T12:57:32.964Z,2.28
2018-06-01T12:58:35.428Z,2.40
2018-06-01T12:59:38.227Z,2.45
2018-06-01T13:00:40.940Z,2.40
2018-06-01T13:01:43.428Z,2.37
2018-06-01T13:02:45.904Z,4.62
2018-06-01T13:03:48.372Z,3.20
2018-06-01T13:04:51.164Z,2.87
2018-06-01T13:05:54.741Z,2.53
2018-06-01T13:06:57.991Z,2.60
2018-06-01T13:08:00.456Z,2.70
2018-06-01T13:09:02.924Z,2.53
2018-06-01T13:10:05.403Z,2.62
2018-06-01T13:11:08.183Z,2.92
2018-06-01T13:12:11.440Z,2.95
2018-06-01T13:13:13.907Z,2.90
2018-06-01T13:14:16.372Z,3.03
2018-06-01T13:15:19.268Z,2.90
2018-06-01T13:16:22.818Z,3.30
2018-06-01T13:17:25.319Z,3.30
2018-06-01T13:18:27.787Z,2.92
2018-06-01T13:19:30.252Z,2.70
2018-06-01T13:20:33.045Z,3.00
2018-06-01T13:21:36.295Z,3.50
2018-06-01T13:22:38.760Z,3.92
2018-06-01T13:23:41.228Z,3.42
2018-06-01T13:24:43.696Z,3.20
2018-06-01T13:25:47.351Z,3.17
2018-06-01T13:26:50.668Z,3.17
2018-06-01T13:27:53.132Z,3.03
2018-06-01T13:28:55.595Z,2.70
2018-06-01T13:29:58.059Z,3.05
2018-06-01T13:31:00.798Z,3.75
2018-06-01T13:32:03.284Z,3.28
2018-06-01T13:33:05.748Z,3.00
2018-06-01T13:34:08.226Z,3.00
2018-06-01T13:35:10.963Z,3.30